Time;durP1;ratioP1;P1;durP2;ratioP2;P2;SDS_P1;SDS_P2;PMS_P1;PMS_P2;Temp;Humidity;BMP_temperature;BMP_pressure;BME280_temperature;BME280_humidity;BME280_pressure;Samples;Min_cycle;Max_cycle;Signal;HPM_P1;HPM_P2
2022/03/22 00:02:01;;;;;;;39.73;30.23;;;;;;;8.62;72.84;102836.94;5235569;28;20044;-75
2022/03/22 00:04:32;;;;;;;41.92;30.35;;;;;;;8.57;73.22;102843.72;5235079;28;20444;-75
2022/03/22 00:07:03;;;;;;;40.77;31.97;;;;;;;8.56;73.22;102841.97;5235139;28;20124;-75
2022/03/22 00:09:36;;;;;;;42.13;31.30;;;;;;;8.45;73.21;102843.38;5217766;28;20025;-76
2022/03/22 00:12:07;;;;;;;43.28;31.98;;;;;;;8.35;73.87;102848.25;5235584;28;20026;-76
2022/03/22 00:14:39;;;;;;;37.07;30.67;;;;;;;8.30;74.16;102835.97;5235105;28;20416;-74
2022/03/22 00:17:11;;;;;;;41.23;31.60;;;;;;;8.30;74.36;102843.78;5235399;28;20028;-74
2022/03/22 00:19:42;;;;;;;41.93;33.23;;;;;;;8.26;74.31;102849.69;5234636;28;20041;-75
2022/03/22 00:22:14;;;;;;;44.23;31.83;;;;;;;8.23;74.49;102840.13;5234894;28;20048;-75
2022/03/22 00:24:46;;;;;;;40.55;31.02;;;;;;;8.26;74.37;102837.63;5234892;28;20043;-74
2022/03/22 00:27:17;;;;;;;44.33;31.93;;;;;;;8.29;74.15;102840.31;5235023;28;20053;-74
2022/03/22 00:29:49;;;;;;;40.97;32.00;;;;;;;8.16;74.49;102844.25;5217305;28;20030;-75
2022/03/22 00:32:20;;;;;;;45.20;32.73;;;;;;;8.21;74.60;102849.56;5234976;28;20032;-75
2022/03/22 00:34:51;;;;;;;40.47;31.73;;;;;;;8.07;75.25;102853.47;5234600;28;20025;-76
2022/03/22 00:37:24;;;;;;;43.87;32.77;;;;;;;8.17;74.89;102855.50;5234694;28;20041;-76
2022/03/22 00:39:55;;;;;;;38.97;31.50;;;;;;;8.12;74.94;102855.38;5234579;28;20030;-74
2022/03/22 00:42:27;;;;;;;47.57;31.37;;;;;;;8.03;75.48;102858.59;5234909;28;20041;-76
2022/03/22 00:44:58;;;;;;;41.73;32.30;;;;;;;7.89;76.20;102864.16;5234231;28;20043;-73
2022/03/22 00:47:30;;;;;;;43.23;33.17;;;;;;;7.93;76.16;102860.84;5234047;28;20036;-75
2022/03/22 00:50:01;;;;;;;44.80;33.50;;;;;;;7.91;76.64;102857.31;5234802;28;20547;-74
2022/03/22 00:52:34;;;;;;;43.17;32.20;;;;;;;7.78;76.61;102856.03;5234506;28;20049;-75
2022/03/22 00:55:07;;;;;;;38.85;32.17;;;;;;;7.88;76.63;102858.09;5234666;28;20030;-75
2022/03/22 00:57:42;;;;;;;41.72;32.50;;;;;;;7.78;76.37;102856.91;5234286;28;20056;-75
2022/03/22 01:00:14;;;;;;;43.10;33.05;;;;;;;7.87;76.34;102858.03;5234376;28;20018;-75
2022/03/22 01:02:49;;;;;;;41.72;31.77;;;;;;;7.81;76.30;102858.75;5234460;28;20037;-75
2022/03/22 01:05:22;;;;;;;41.53;29.77;;;;;;;7.83;76.34;102863.13;5234113;28;20041;-75
2022/03/22 01:07:59;;;;;;;39.05;30.20;;;;;;;7.86;76.43;102864.94;5234142;28;20075;-74
2022/03/22 01:10:32;;;;;;;38.67;29.83;;;;;;;7.78;75.94;102862.09;5234614;28;20029;-75
2022/03/22 01:13:06;;;;;;;38.28;30.55;;;;;;;7.74;75.75;102864.56;5234093;28;20029;-74
2022/03/22 01:15:42;;;;;;;39.42;31.70;;;;;;;7.78;76.27;102867.31;5234240;28;20374;-74
2022/03/22 01:18:16;;;;;;;40.97;30.88;;;;;;;7.63;77.21;102865.09;5234529;28;20427;-75
2022/03/22 01:20:49;;;;;;;38.83;31.45;;;;;;;7.59;76.93;102868.41;5234066;28;20030;-75
2022/03/22 01:23:21;;;;;;;42.67;31.70;;;;;;;7.43;77.29;102859.22;5234232;28;20388;-75
2022/03/22 01:25:52;;;;;;;40.47;29.77;;;;;;;7.59;77.70;102868.41;5234194;28;20034;-74
2022/03/22 01:28:24;;;;;;;37.13;29.43;;;;;;;7.54;77.36;102861.31;5234639;28;20030;-75
2022/03/22 01:30:55;;;;;;;36.97;31.10;;;;;;;7.51;77.24;102869.00;5234196;28;20026;-73
2022/03/22 01:33:27;;;;;;;39.43;31.17;;;;;;;7.32;77.91;102860.56;5234254;28;20026;-73
2022/03/22 01:35:58;;;;;;;41.47;31.33;;;;;;;7.29;78.51;102863.97;5234655;28;20071;-74
2022/03/22 01:38:30;;;;;;;40.87;29.83;;;;;;;7.39;77.66;102862.56;5234416;28;20069;-74
2022/03/22 01:41:01;;;;;;;40.67;30.00;;;;;;;7.44;77.45;102868.78;5234132;28;20056;-74
2022/03/22 01:43:33;;;;;;;35.40;28.10;;;;;;;7.41;78.47;102870.41;5233849;28;20291;-74
2022/03/22 01:46:04;;;;;;;38.00;29.57;;;;;;;7.47;77.53;102868.00;5234525;28;20796;-74
2022/03/22 01:48:36;;;;;;;37.50;29.33;;;;;;;7.53;77.37;102863.00;5233982;28;20037;-74
2022/03/22 01:51:09;;;;;;;40.50;28.92;;;;;;;7.42;77.81;102870.47;5234139;28;20080;-73
2022/03/22 01:53:42;;;;;;;37.60;28.73;;;;;;;7.45;77.99;102862.78;5233685;28;20021;-74
2022/03/22 01:56:14;;;;;;;39.13;28.13;;;;;;;7.41;77.87;102863.50;5233989;28;20022;-74
2022/03/22 01:58:45;;;;;;;33.70;28.42;;;;;;;7.43;77.65;102864.41;5235642;28;20049;-75
2022/03/22 02:06:59;;;;;;;33.00;27.20;;;;;;;7.30;78.19;102857.06;5237504;28;20037;-74
2022/03/22 02:09:31;;;;;;;34.55;27.02;;;;;;;7.31;78.21;102861.44;5237215;28;20047;-74
2022/03/22 02:12:03;;;;;;;37.70;27.17;;;;;;;7.24;78.81;102862.91;5237379;28;20029;-74
2022/03/22 02:14:35;;;;;;;37.63;27.38;;;;;;;7.20;79.21;102848.09;5237519;28;20725;-74
2022/03/22 02:17:09;;;;;;;33.27;26.97;;;;;;;7.14;79.38;102850.47;5237376;28;20022;-74
2022/03/22 02:19:40;;;;;;;33.80;26.98;;;;;;;7.16;78.85;102848.78;5237499;28;20725;-75
2022/03/22 02:22:16;;;;;;;32.33;26.35;;;;;;;7.02;79.35;102842.25;5237304;28;20017;-75
2022/03/22 02:24:47;;;;;;;35.72;27.02;;;;;;;6.91;79.28;102842.75;5236897;28;20435;-74
2022/03/22 02:27:19;;;;;;;38.73;27.93;;;;;;;6.94;79.76;102845.47;5237133;28;20035;-75
2022/03/22 02:29:50;;;;;;;32.60;25.30;;;;;;;6.93;79.13;102843.69;5236939;28;20026;-75
2022/03/22 02:32:25;;;;;;;39.83;27.27;;;;;;;6.81;80.19;102848.47;5237232;28;20041;-75
2022/03/22 02:34:56;;;;;;;33.28;26.30;;;;;;;6.77;80.12;102845.69;5236978;28;20033;-75
2022/03/22 02:37:28;;;;;;;33.30;26.43;;;;;;;6.76;80.01;102844.78;5237016;28;20076;-76
2022/03/22 02:39:59;;;;;;;29.87;26.33;;;;;;;6.80;80.26;102844.09;5236781;28;20033;-75
2022/03/22 02:42:31;;;;;;;33.10;25.87;;;;;;;6.73;80.09;102843.00;5236829;28;20026;-75
2022/03/22 02:45:02;;;;;;;35.93;26.90;;;;;;;6.74;79.90;102846.44;5236624;28;20036;-75
2022/03/22 02:47:34;;;;;;;33.83;26.87;;;;;;;6.66;79.91;102846.16;5236845;28;20043;-74
2022/03/22 02:50:07;;;;;;;32.70;25.67;;;;;;;6.69;79.98;102853.19;5236870;28;20064;-74
2022/03/22 02:52:40;;;;;;;32.58;25.85;;;;;;;6.65;80.35;102848.69;5236683;28;20033;-75
2022/03/22 02:55:12;;;;;;;31.60;24.05;;;;;;;6.65;80.20;102846.09;5236690;28;20512;-75
2022/03/22 02:57:44;;;;;;;35.00;26.67;;;;;;;6.61;80.40;102850.31;5236588;28;20136;-75
2022/03/22 03:00:16;;;;;;;37.40;26.97;;;;;;;6.59;80.14;102854.56;5236354;28;20280;-75
2022/03/22 03:02:50;;;;;;;;;;;;;;;6.58;78.47;102850.19;5237043;28;20083;-75
2022/03/22 03:05:22;;;;;;;33.58;24.08;;;;;;;6.52;79.95;102849.97;5236236;28;19917;-76
2022/03/22 03:07:54;;;;;;;;;;;;;;;6.49;78.31;102853.34;5236653;28;20033;-75
2022/03/22 03:10:25;;;;;;;29.73;23.88;;;;;;;6.37;80.41;102856.31;5235591;28;19924;-75
2022/03/22 03:13:01;;;;;;;35.03;26.57;;;;;;;6.31;81.04;102858.72;5235939;28;20037;-75
2022/03/22 03:15:33;;;;;;;34.40;24.00;;;;;;;6.28;81.71;102855.09;5218560;28;20037;-75
2022/03/22 03:18:04;;;;;;;36.33;23.63;;;;;;;6.30;81.52;102854.34;5236221;28;20037;-75
2022/03/22 03:20:36;;;;;;;33.03;24.70;;;;;;;6.18;82.04;102852.19;5236370;28;20029;-74
2022/03/22 03:23:08;;;;;;;33.93;24.27;;;;;;;6.26;81.61;102857.63;5236499;28;20064;-74
2022/03/22 03:25:39;;;;;;;30.87;23.63;;;;;;;6.22;81.79;102857.47;5235811;28;20048;-75
2022/03/22 03:28:11;;;;;;;30.20;22.40;;;;;;;6.21;81.78;102859.16;5235886;28;20029;-74
2022/03/22 03:30:42;;;;;;;27.07;23.30;;;;;;;6.11;81.94;102860.50;5235708;28;20377;-74
2022/03/22 03:33:13;;;;;;;34.57;23.83;;;;;;;5.98;82.17;102860.88;5236244;28;20431;-74
2022/03/22 03:35:45;;;;;;;36.17;24.63;;;;;;;6.01;82.63;102861.00;5235891;28;20037;-74
2022/03/22 03:38:16;;;;;;;34.97;25.00;;;;;;;6.00;82.66;102866.97;5235837;28;20117;-74
2022/03/22 03:43:37;;;;;;;28.58;22.45;;;;;;;5.92;83.11;102869.22;5235420;28;20064;-75
2022/03/22 03:48:59;;;;;;;30.77;23.42;;;;;;;5.82;83.17;102874.88;5235711;28;20045;-74
2022/03/22 03:51:31;;;;;;;32.58;24.08;;;;;;;5.83;83.51;102874.94;5235482;28;20029;-75
2022/03/22 03:54:02;;;;;;;33.83;24.00;;;;;;;5.79;83.52;102875.63;5235407;28;20028;-75
2022/03/22 03:56:34;;;;;;;32.10;24.67;;;;;;;5.73;83.47;102883.16;5235421;28;20132;-75
2022/03/22 03:59:05;;;;;;;33.43;23.93;;;;;;;5.68;83.72;102881.19;5234945;28;20041;-75
2022/03/22 04:01:37;;;;;;;30.73;23.53;;;;;;;5.63;84.09;102887.03;5217966;28;20575;-75
2022/03/22 04:04:08;;;;;;;30.43;22.87;;;;;;;5.64;83.82;102882.78;5235493;28;20350;-75
2022/03/22 04:06:39;;;;;;;32.37;24.13;;;;;;;5.60;83.86;102892.13;5235098;28;20029;-74
2022/03/22 04:09:11;;;;;;;35.87;23.67;;;;;;;5.63;84.26;102889.63;5234974;28;20053;-74
2022/03/22 04:11:44;;;;;;;33.90;24.77;;;;;;;5.65;84.89;102888.00;5235327;28;20079;-75
2022/03/22 04:14:15;;;;;;;;;;;;;;;5.62;83.20;102887.88;5235328;28;20397;-74
2022/03/22 04:16:47;;;;;;;32.08;24.15;;;;;;;5.72;84.39;102883.97;5234783;28;19917;-74
2022/03/22 04:19:18;;;;;;;30.87;24.00;;;;;;;5.77;84.51;102889.34;5235052;28;20104;-74
2022/03/22 04:21:50;;;;;;;32.50;24.50;;;;;;;5.84;84.53;102891.34;5233945;28;20064;-74
2022/03/22 04:24:22;;;;;;;30.20;22.90;;;;;;;5.80;84.48;102887.75;5235030;28;20370;-74
2022/03/22 04:26:53;;;;;;;34.70;24.30;;;;;;;5.78;84.46;102889.41;5216797;28;20095;-75
2022/03/22 04:35:05;;;;;;;35.00;23.05;;;;;;;5.57;84.11;102889.41;5234893;28;20046;-76
2022/03/22 04:37:38;;;;;;;32.27;22.13;;;;;;;5.58;83.80;102882.50;5235124;28;20022;-76
2022/03/22 04:40:10;;;;;;;31.20;22.63;;;;;;;5.53;84.17;102892.66;5217125;28;20057;-75
2022/03/22 04:42:42;;;;;;;29.17;22.48;;;;;;;5.47;84.39;102889.81;5234868;28;20373;-74
2022/03/22 04:45:14;;;;;;;32.88;24.50;;;;;;;5.50;84.77;102884.78;5234919;28;20036;-74
2022/03/22 04:47:46;;;;;;;31.92;23.25;;;;;;;5.52;85.02;102895.19;5235071;28;20029;-74
2022/03/22 04:50:18;;;;;;;32.20;24.77;;;;;;;5.49;85.32;102898.53;5234862;28;20030;-74
2022/03/22 04:58:30;;;;;;;29.63;22.98;;;;;;;5.40;85.33;102895.56;5234428;28;20053;-75
2022/03/22 05:01:03;;;;;;;31.97;22.17;;;;;;;5.36;85.02;102897.13;5233959;28;20022;-74
2022/03/22 05:03:35;;;;;;;34.92;23.58;;;;;;;5.39;85.21;102912.75;5234468;28;20033;-75
2022/03/22 05:08:56;;;;;;;29.80;23.58;;;;;;;5.31;84.79;102908.97;5234479;28;20069;-76
2022/03/22 05:11:27;;;;;;;30.30;22.53;;;;;;;5.28;84.97;102911.41;5235001;28;20521;-76
2022/03/22 05:14:00;;;;;;;30.77;23.07;;;;;;;5.19;85.52;102905.88;5234726;28;20045;-76
2022/03/22 05:16:31;;;;;;;37.88;23.35;;;;;;;5.27;85.87;102915.72;5234198;28;20039;-77
2022/03/22 05:19:06;;;;;;;34.40;23.50;;;;;;;5.23;85.91;102915.50;5234758;28;20030;-74
2022/03/22 05:21:37;;;;;;;36.30;23.35;;;;;;;5.22;86.51;102921.53;5234773;28;20100;-75
2022/03/22 05:24:09;;;;;;;31.73;25.00;;;;;;;5.15;86.18;102924.63;5234599;28;20091;-75
2022/03/22 05:26:40;;;;;;;33.77;23.87;;;;;;;5.10;85.88;102925.34;5234664;28;20277;-75
2022/03/22 05:29:13;;;;;;;29.80;23.50;;;;;;;5.18;86.31;102927.34;5234383;28;20033;-76
2022/03/22 05:31:45;;;;;;;28.58;22.85;;;;;;;5.18;86.69;102929.94;5215736;28;20040;-75
2022/03/22 05:34:17;;;;;;;31.95;22.52;;;;;;;5.12;86.46;102928.00;5237974;28;20034;-76
2022/03/22 05:36:48;;;;;;;30.70;23.80;;;;;;;5.07;86.39;102922.63;5220188;28;20498;-75
2022/03/22 05:39:20;;;;;;;34.33;24.90;;;;;;;5.15;86.82;102930.69;5238103;28;20448;-76
2022/03/22 05:41:51;;;;;;;32.83;24.13;;;;;;;5.21;86.86;102932.66;5237774;28;20025;-76
2022/03/22 05:44:23;;;;;;;31.57;23.53;;;;;;;5.23;86.92;102929.34;5237512;28;20037;-75
2022/03/22 05:46:58;;;;;;;35.03;23.60;;;;;;;5.18;87.09;102930.81;5237659;28;20430;-76
2022/03/22 05:49:29;;;;;;;36.85;24.17;;;;;;;5.23;86.80;102928.44;5237523;28;20029;-77
2022/03/22 05:52:01;;;;;;;37.00;25.30;;;;;;;5.25;86.56;102927.69;5237884;28;20340;-77
2022/03/22 05:54:34;;;;;;;36.63;24.80;;;;;;;5.30;86.38;102931.38;5237903;28;20026;-77
2022/03/22 05:57:05;;;;;;;32.85;23.38;;;;;;;5.37;86.56;102936.81;5237541;28;20030;-75
2022/03/22 05:59:36;;;;;;;38.20;25.07;;;;;;;5.34;86.50;102936.66;5237598;28;20029;-76
2022/03/22 06:02:09;;;;;;;32.53;25.20;;;;;;;5.39;86.85;102930.00;5218616;28;20128;-76
2022/03/22 06:04:41;;;;;;;36.60;25.23;;;;;;;5.36;86.58;102928.19;5237466;28;20469;-76
2022/03/22 06:07:12;;;;;;;36.60;25.60;;;;;;;5.47;86.20;102942.44;5237168;28;20090;-76
2022/03/22 06:09:43;;;;;;;34.77;25.73;;;;;;;5.51;86.14;102945.19;5237551;28;20264;-76
2022/03/22 06:12:16;;;;;;;32.90;25.53;;;;;;;5.57;85.79;102945.41;5237143;28;20105;-74
2022/03/22 06:15:14;;;;;;;35.65;24.67;;;;;;;5.65;85.53;102947.53;5237334;28;20033;-75
2022/03/22 06:17:39;;;;;;;37.05;25.67;;;;;;;5.71;85.32;102944.28;5236582;28;20048;-75
2022/03/22 06:20:11;;;;;;;33.17;24.50;;;;;;;5.78;84.95;102946.34;5237221;28;20034;-76
2022/03/22 06:22:42;;;;;;;37.17;25.27;;;;;;;5.86;84.83;102946.66;5236974;28;20027;-77
2022/03/22 06:25:15;;;;;;;31.02;23.98;;;;;;;5.96;84.36;102945.31;5236676;28;20029;-76
2022/03/22 06:27:48;;;;;;;;;;;;;;;5.94;84.13;102947.84;5237225;28;20099;-77
2022/03/22 06:30:20;;;;;;;35.25;23.45;;;;;;;6.11;83.42;102948.56;5236857;28;19913;-76
2022/03/22 06:32:57;;;;;;;30.20;24.05;;;;;;;6.19;83.18;102949.75;5236800;28;20044;-77
2022/03/22 06:35:31;;;;;;;35.50;24.60;;;;;;;6.27;82.65;102951.78;5236932;28;20025;-77
2022/03/22 06:38:03;;;;;;;33.90;25.70;;;;;;;6.36;82.46;102949.56;5236833;28;20453;-75
2022/03/22 06:40:38;;;;;;;40.63;25.57;;;;;;;6.44;81.87;102948.16;5237189;28;20041;-77
2022/03/22 06:43:12;;;;;;;33.25;24.25;;;;;;;6.53;81.66;102950.19;5236820;28;20481;-76
2022/03/22 06:45:45;;;;;;;36.10;26.27;;;;;;;6.64;81.13;102955.81;5217813;28;20046;-75
2022/03/22 06:48:16;;;;;;;36.55;24.48;;;;;;;6.71;80.68;102950.91;5236134;28;20026;-75
2022/03/22 06:50:49;;;;;;;41.17;25.63;;;;;;;6.79;80.33;102958.97;5236258;28;20033;-75
2022/03/22 06:53:20;;;;;;;41.97;26.33;;;;;;;6.87;80.06;102965.31;5236418;28;20044;-75
2022/03/22 06:55:52;;;;;;;41.50;26.63;;;;;;;6.98;79.44;102960.53;5236650;28;20018;-75
2022/03/22 06:58:24;;;;;;;40.37;25.17;;;;;;;7.06;79.14;102966.00;5236548;28;20052;-75
2022/03/22 07:00:56;;;;;;;32.75;25.25;;;;;;;7.17;78.45;102961.22;5236396;28;20017;-75
2022/03/22 07:03:27;;;;;;;31.77;25.53;;;;;;;7.26;77.90;102969.31;5236245;28;20523;-75
2022/03/22 07:05:59;;;;;;;35.50;24.27;;;;;;;7.35;77.46;102966.19;5236393;28;20044;-77
2022/03/22 07:08:30;;;;;;;32.17;23.33;;;;;;;7.47;76.55;102970.09;5236458;28;20112;-75
2022/03/22 07:13:52;;;;;;;36.65;23.60;;;;;;;7.70;75.52;102972.59;5236620;28;20100;-76
2022/03/22 07:16:27;;;;;;;30.60;22.95;;;;;;;7.83;74.65;102976.50;5236315;28;20293;-77
2022/03/22 07:18:59;;;;;;;32.72;24.15;;;;;;;7.95;74.91;102978.63;5236200;28;20933;-75
2022/03/22 07:21:30;;;;;;;33.97;25.00;;;;;;;8.06;73.81;102969.47;5235852;28;20021;-76
2022/03/22 07:24:02;;;;;;;35.17;24.93;;;;;;;8.19;73.27;102975.94;5235934;28;20068;-75
2022/03/22 07:26:33;;;;;;;31.27;24.80;;;;;;;8.30;72.80;102977.16;5236083;28;20051;-77
2022/03/22 07:29:05;;;;;;;36.57;25.23;;;;;;;8.44;71.93;102974.19;5236071;28;20034;-77
2022/03/22 07:31:41;;;;;;;33.63;23.60;;;;;;;8.60;70.66;102976.41;5235561;28;20051;-76
2022/03/22 07:34:15;;;;;;;31.98;24.27;;;;;;;8.77;69.93;102979.50;5235775;28;20033;-75
2022/03/22 07:36:47;;;;;;;35.17;23.30;;;;;;;8.94;69.24;102980.00;5235402;28;20029;-76
2022/03/22 07:39:20;;;;;;;32.07;22.90;;;;;;;9.05;67.68;102972.53;5235620;28;20091;-76
2022/03/22 07:41:51;;;;;;;34.47;24.08;;;;;;;9.22;67.48;102975.59;5235937;28;20052;-76
2022/03/22 07:44:23;;;;;;;32.40;24.07;;;;;;;9.35;67.86;102977.69;5235705;28;20029;-76
2022/03/22 07:46:54;;;;;;;30.47;24.13;;;;;;;9.50;66.34;102977.25;5235558;28;20030;-76
2022/03/22 07:55:07;;;;;;;31.00;23.40;;;;;;;9.93;64.58;102980.06;5235303;28;20029;-77
2022/03/22 07:57:39;;;;;;;37.00;23.63;;;;;;;10.08;63.86;102985.69;5235067;28;20539;-76
2022/03/22 08:00:10;;;;;;;30.77;22.20;;;;;;;10.19;63.46;102983.31;5235157;28;20033;-75
2022/03/22 08:02:52;;;;;;;33.20;23.43;;;;;;;10.43;62.57;102982.16;5235187;28;20080;-75
2022/03/22 08:05:25;;;;;;;28.70;21.80;;;;;;;10.57;61.14;102984.22;5235260;28;20425;-75
2022/03/22 08:07:57;;;;;;;32.60;22.40;;;;;;;10.68;60.59;102988.81;5234768;28;20031;-76
2022/03/22 08:10:30;;;;;;;33.37;22.33;;;;;;;10.86;60.31;102985.72;5235364;28;20030;-75
2022/03/22 08:13:02;;;;;;;29.30;22.17;;;;;;;11.04;59.80;102983.50;5234979;28;20082;-75
2022/03/22 08:15:34;;;;;;;29.77;21.67;;;;;;;11.17;58.78;102989.84;5234726;28;20022;-76
2022/03/22 08:18:06;;;;;;;32.77;21.93;;;;;;;11.36;58.65;102990.22;5217441;28;20432;-76
2022/03/22 08:20:37;;;;;;;35.17;22.07;;;;;;;11.54;57.83;102989.69;5234443;28;20032;-75
2022/03/22 08:23:09;;;;;;;33.90;21.87;;;;;;;11.69;56.89;102982.13;5234671;28;20025;-76
2022/03/22 08:25:56;;;;;;;34.17;22.30;;;;;;;11.85;56.41;102999.84;5320080;27;1305245;-75
2022/03/22 08:28:27;;;;;;;29.17;21.77;;;;;;;11.94;54.86;102996.53;5336985;28;20031;-75
2022/03/22 08:30:59;;;;;;;32.97;22.50;;;;;;;12.11;54.49;102999.44;5336542;27;20110;-75
2022/03/22 08:33:30;;;;;;;33.20;23.00;;;;;;;12.24;54.06;102997.03;5336448;27;20547;-74
2022/03/22 08:36:02;;;;;;;31.27;21.77;;;;;;;12.43;54.09;103001.69;5336913;27;20134;-76
2022/03/22 08:38:33;;;;;;;32.60;23.00;;;;;;;12.54;53.55;102997.47;5336316;27;20030;-75
2022/03/22 08:41:05;;;;;;;38.43;23.67;;;;;;;12.66;52.06;102994.16;5336756;27;20443;-74
2022/03/22 08:43:36;;;;;;;33.87;22.80;;;;;;;12.86;52.79;102993.53;5336556;27;20510;-77
2022/03/22 08:46:08;;;;;;;38.77;23.20;;;;;;;13.06;51.79;102988.56;5336719;27;20028;-75
2022/03/22 08:48:39;;;;;;;31.57;21.97;;;;;;;13.12;50.81;102991.22;5336399;27;20575;-76
2022/03/22 08:51:11;;;;;;;29.60;22.60;;;;;;;13.29;50.60;102987.06;5336464;27;20027;-75
2022/03/22 08:53:42;;;;;;;30.03;22.47;;;;;;;13.39;49.14;102990.72;5336004;27;20032;-76
2022/03/22 08:56:14;;;;;;;34.97;22.13;;;;;;;13.70;49.37;102990.16;5336515;28;20261;-76
2022/03/22 08:58:46;;;;;;;28.48;21.23;;;;;;;14.29;47.31;102997.63;5335955;27;20020;-77
2022/03/22 09:01:17;;;;;;;31.27;22.00;;;;;;;14.61;45.42;102991.75;5336170;28;20023;-76
2022/03/22 09:06:07;;;;;;;34.27;23.83;;;;;;;15.07;45.67;102991.06;5336027;27;20031;-76
2022/03/22 09:06:40;;;;;;;30.13;23.38;;;;;;;15.60;45.79;102993.00;5335928;28;20118;-77
2022/03/22 09:09:13;;;;;;;28.67;22.40;;;;;;;15.67;43.88;102989.47;5335512;27;20793;-77
2022/03/22 09:11:44;;;;;;;;;;;;;;;16.55;45.96;102989.47;5336932;27;20019;-76
2022/03/22 09:14:16;;;;;;;40.38;23.58;;;;;;;16.78;41.88;102984.09;5336585;27;20108;-76
2022/03/22 09:16:47;;;;;;;33.37;23.17;;;;;;;17.20;42.84;102981.31;5335740;27;20110;-76
2022/03/22 09:19:19;;;;;;;36.60;25.57;;;;;;;17.40;39.52;102986.47;5335893;27;20027;-75
2022/03/22 09:21:50;;;;;;;30.47;23.47;;;;;;;17.70;39.83;102983.66;5336069;27;20061;-77
2022/03/22 09:24:22;;;;;;;30.13;22.93;;;;;;;17.81;37.83;102987.06;5335866;28;20048;-75
2022/03/22 09:26:53;;;;;;;30.83;22.93;;;;;;;18.12;37.50;102986.84;5335776;27;20016;-77
2022/03/22 09:29:24;;;;;;;30.07;24.47;;;;;;;18.18;36.78;102982.38;5335827;28;20023;-77
2022/03/22 09:31:56;;;;;;;29.60;22.37;;;;;;;18.50;37.07;102980.28;5335549;27;20114;-77
2022/03/22 09:34:28;;;;;;;35.97;23.37;;;;;;;18.84;34.55;102978.16;5335729;27;20491;-76
2022/03/22 09:37:00;;;;;;;;;;;;;;;19.52;36.35;102981.63;5323582;27;20027;-75
2022/03/22 09:39:31;;;;;;;26.13;22.75;;;;;;;19.06;35.24;102977.88;5321149;28;19942;-77
2022/03/22 09:42:03;;;;;;;31.37;24.13;;;;;;;19.18;35.97;102979.50;5321487;28;20028;-78
2022/03/22 09:44:35;;;;;;;25.55;22.73;;;;;;;19.46;34.96;102986.13;5321104;28;20443;-77
2022/03/22 09:47:07;;;;;;;31.80;22.88;;;;;;;19.84;32.68;102989.09;5321259;28;20054;-77
2022/03/22 09:49:38;;;;;;;30.83;22.33;;;;;;;19.90;31.83;102988.09;5321303;28;20379;-76
2022/03/22 09:52:11;;;;;;;31.80;24.17;;;;;;;19.96;31.84;102978.28;5321699;28;20027;-76
2022/03/22 09:54:42;;;;;;;31.23;23.40;;;;;;;20.22;32.44;102983.13;5321839;28;20288;-78
2022/03/22 09:57:14;;;;;;;33.20;23.07;;;;;;;20.53;30.58;102984.31;5322798;28;20019;-76
2022/03/22 09:59:45;;;;;;;28.63;22.00;;;;;;;20.97;30.39;102971.94;5322434;28;20027;-76
2022/03/22 10:02:26;;;;;;;36.87;24.03;;;;;;;21.31;29.83;102974.69;5322407;28;20024;-76
2022/03/22 10:04:58;;;;;;;29.75;23.35;;;;;;;21.25;29.55;102974.88;5322625;28;20154;-77
2022/03/22 10:07:30;;;;;;;30.20;24.23;;;;;;;21.54;29.32;102976.00;5322474;28;20572;-77
2022/03/22 10:10:06;;;;;;;28.15;22.50;;;;;;;21.45;30.02;102974.38;5321537;28;20514;-73
2022/03/22 10:12:38;;;;;;;24.67;21.98;;;;;;;21.96;28.72;102965.19;5322380;28;20379;-75
2022/03/22 10:15:15;;;;;;;27.50;23.30;;;;;;;22.32;28.14;102965.16;5322469;28;20024;-79
2022/03/22 10:17:47;;;;;;;34.40;25.38;;;;;;;22.57;27.20;102970.66;5322399;28;20035;-75
2022/03/22 10:20:24;;;;;;;29.73;23.45;;;;;;;22.91;28.28;102968.75;5322659;28;20037;-77
2022/03/22 10:22:58;;;;;;;28.67;25.33;;;;;;;23.18;26.41;102963.56;5321317;28;20479;-76
2022/03/22 10:25:31;;;;;;;30.38;23.48;;;;;;;23.36;25.90;102962.09;5321555;28;20047;-76
2022/03/22 10:28:03;;;;;;;34.35;23.73;;;;;;;23.37;25.42;102966.50;5319242;28;20037;-76
2022/03/22 10:30:35;;;;;;;33.30;24.42;;;;;;;23.52;25.13;102960.66;5321107;28;20038;-76
2022/03/22 10:33:09;;;;;;;31.15;23.52;;;;;;;24.17;26.03;102958.50;5320653;28;20309;-77
2022/03/22 10:35:45;;;;;;;31.27;22.98;;;;;;;24.09;25.07;102957.91;5320946;28;20525;-78
2022/03/22 10:38:22;;;;;;;28.42;24.05;;;;;;;23.83;24.68;102954.38;5320673;28;20171;-76
2022/03/22 10:40:53;;;;;;;29.08;22.67;;;;;;;24.59;25.14;102955.22;5320454;28;20049;-75
2022/03/22 10:43:26;;;;;;;24.77;22.10;;;;;;;25.34;22.53;102951.44;5320331;28;20023;-76
2022/03/22 10:46:04;;;;;;;31.15;22.95;;;;;;;25.44;22.92;102950.09;5320244;28;20435;-76
2022/03/22 10:48:36;;;;;;;30.92;23.38;;;;;;;25.77;22.49;102951.41;5319534;28;20023;-76
2022/03/22 10:51:08;;;;;;;29.40;23.75;;;;;;;26.33;22.38;102940.03;5320055;28;20817;-77
2022/03/22 10:53:39;;;;;;;28.23;22.05;;;;;;;26.47;21.55;102942.09;5320036;28;20026;-76
2022/03/22 10:56:12;;;;;;;28.33;22.73;;;;;;;26.69;21.56;102941.97;5319395;28;20490;-77
2022/03/22 10:58:45;;;;;;;29.27;21.20;;;;;;;26.97;21.51;102946.03;5319911;28;20108;-76
2022/03/22 11:01:20;;;;;;;31.40;22.77;;;;;;;26.53;21.75;102939.13;5320036;28;20061;-76
2022/03/22 11:03:56;;;;;;;26.83;22.65;;;;;;;27.29;21.55;102944.44;5319790;28;20024;-77
2022/03/22 11:06:29;;;;;;;28.33;21.90;;;;;;;27.65;20.37;102948.06;5320032;28;20446;-77
2022/03/22 11:09:01;;;;;;;25.52;21.98;;;;;;;27.92;21.20;102945.75;5319918;28;20474;-76
2022/03/22 11:11:35;;;;;;;26.20;21.73;;;;;;;27.61;22.03;102936.63;5320180;27;20035;-77
2022/03/22 11:14:06;;;;;;;32.55;23.17;;;;;;;27.86;20.83;102939.84;5319623;28;20027;-78
2022/03/22 11:16:38;;;;;;;;;;;;;;;29.59;19.36;102932.03;5320194;28;20032;-78
2022/03/22 11:19:10;;;;;;;23.58;18.67;;;;;;;28.31;19.91;102949.13;5319469;28;19930;-75
2022/03/22 11:21:41;;;;;;;23.15;20.58;;;;;;;28.50;20.85;102930.19;5319591;28;20036;-76
2022/03/22 11:24:13;;;;;;;;;;;;;;;30.39;20.50;102937.06;5319831;28;20546;-76
2022/03/22 11:26:47;;;;;;;24.85;20.92;;;;;;;28.54;20.11;102937.13;5319555;27;19915;-76
2022/03/22 11:29:19;;;;;;;25.33;20.02;;;;;;;28.50;20.31;102935.56;5319047;28;20485;-76
2022/03/22 11:34:43;;;;;;;29.23;20.75;;;;;;;29.21;19.38;102926.25;5319559;28;20479;-76
2022/03/22 11:37:28;;;;;;;25.13;19.17;;;;;;;29.78;18.63;102922.84;5318625;28;20102;-75
2022/03/22 11:42:54;;;;;;;25.92;20.55;;;;;;;29.16;19.07;102915.75;5319476;28;20043;-77
2022/03/22 11:45:26;;;;;;;23.60;20.27;;;;;;;29.73;19.27;102914.22;5318720;28;20027;-77
2022/03/22 11:48:07;;;;;;;27.38;21.20;;;;;;;30.13;18.83;102909.09;5318937;28;20573;-75
2022/03/22 11:50:42;;;;;;;27.77;21.30;;;;;;;30.79;17.13;102912.09;5318697;28;20051;-76
2022/03/22 11:53:19;;;;;;;26.70;20.77;;;;;;;30.52;18.44;102912.91;5318768;28;20032;-77
2022/03/22 11:55:52;;;;;;;24.88;20.00;;;;;;;30.72;17.73;102908.94;5318961;28;20040;-77
2022/03/22 11:58:27;;;;;;;26.58;21.25;;;;;;;30.67;17.13;102909.25;5318387;28;20030;-77
2022/03/22 12:01:01;;;;;;;27.23;22.00;;;;;;;30.82;16.76;102917.28;5318491;28;20512;-77
2022/03/22 12:03:35;;;;;;;25.65;21.75;;;;;;;30.92;16.62;102913.00;5318624;28;20016;-78
2022/03/22 12:06:11;;;;;;;29.88;22.17;;;;;;;30.97;16.49;102907.34;5318696;28;20591;-75
2022/03/22 12:08:42;;;;;;;22.20;19.58;;;;;;;31.99;16.48;102907.53;5318662;28;20035;-77
2022/03/22 12:11:16;;;;;;;24.48;21.65;;;;;;;31.78;17.00;102900.94;5318834;28;20072;-76
2022/03/22 12:13:49;;;;;;;27.42;20.02;;;;;;;32.05;16.14;102897.28;5318201;28;20762;-77
2022/03/22 12:16:26;;;;;;;26.85;21.13;;;;;;;31.76;16.30;102902.91;5318205;28;20162;-77
2022/03/22 12:19:00;;;;;;;24.95;21.17;;;;;;;32.06;15.93;102893.63;5318392;28;20030;-76
2022/03/22 12:21:32;;;;;;;25.85;21.65;;;;;;;32.62;15.46;102885.94;5316905;28;20034;-76